Time;durP1;ratioP1;P1;durP2;ratioP2;P2;SDS_P1;SDS_P2;PMS_P1;PMS_P2;Temp;Humidity;BMP_temperature;BMP_pressure;BME280_temperature;BME280_humidity;BME280_pressure;Samples;Min_cycle;Max_cycle;Signal;HPM_P1;HPM_P2
2022/04/19 00:01:44;;;;;;;4.57;2.70;;;;;;;7.86;66.40;97815.50;4995052;28;20219;-72
2022/04/19 00:04:11;;;;;;;5.07;3.00;;;;;;;7.83;66.48;97818.59;4995004;28;20207;-72
2022/04/19 00:06:38;;;;;;;6.60;2.77;;;;;;;7.78;66.63;97821.84;4994894;28;20203;-71
2022/04/19 00:09:05;;;;;;;3.03;2.73;;;;;;;7.75;66.82;97824.09;4994537;28;20596;-71
2022/04/19 00:11:31;;;;;;;5.00;3.20;;;;;;;7.67;67.83;97825.13;4994941;28;20203;-72
2022/04/19 00:13:57;;;;;;;5.10;3.23;;;;;;;7.65;67.55;97824.50;4995739;28;20561;-71
2022/04/19 00:16:24;;;;;;;3.40;2.90;;;;;;;7.63;67.47;97815.97;4994857;28;20215;-71
2022/04/19 00:18:50;;;;;;;4.60;3.00;;;;;;;7.65;67.64;97819.22;4994694;28;20249;-71
2022/04/19 00:21:18;;;;;;;5.07;2.87;;;;;;;7.62;67.69;97810.88;4994120;28;20212;-72
2022/04/19 00:23:46;;;;;;;4.17;3.00;;;;;;;7.58;67.91;97812.31;4994725;28;20277;-72
2022/04/19 00:26:13;;;;;;;4.33;2.90;;;;;;;7.65;67.96;97800.69;4995450;28;20218;-71
2022/04/19 00:28:39;;;;;;;4.90;2.63;;;;;;;7.51;68.40;97807.03;4994197;28;20246;-71
2022/04/19 00:31:05;;;;;;;5.67;2.50;;;;;;;7.51;68.23;97803.59;4994553;28;20207;-71
2022/04/19 00:33:32;;;;;;;3.50;2.80;;;;;;;7.46;68.18;97798.09;4995058;28;20214;-71
2022/04/19 00:35:59;;;;;;;4.33;3.20;;;;;;;7.47;68.39;97797.09;4994712;28;20215;-71
2022/04/19 00:38:25;;;;;;;4.27;3.03;;;;;;;7.43;68.88;97807.25;4994040;28;20315;-71
2022/04/19 00:40:52;;;;;;;3.87;2.93;;;;;;;7.38;70.01;97798.31;4994107;28;20674;-71
2022/04/19 00:43:18;;;;;;;5.80;3.27;;;;;;;7.42;69.22;97796.88;4994401;28;20732;-71
2022/04/19 00:45:45;;;;;;;10.30;3.70;;;;;;;7.36;69.21;97795.03;4994382;28;20219;-71
2022/04/19 00:48:11;;;;;;;5.13;3.17;;;;;;;7.35;69.44;97796.91;4994079;28;20580;-71
2022/04/19 00:50:38;;;;;;;4.47;3.50;;;;;;;7.34;69.52;97795.25;4994075;28;20217;-71
2022/04/19 00:53:05;;;;;;;6.57;3.73;;;;;;;7.34;69.30;97782.03;4993689;28;20218;-72
2022/04/19 00:55:34;;;;;;;6.53;3.77;;;;;;;7.26;69.99;97787.53;4993068;28;20203;-72
2022/04/19 00:58:00;;;;;;;5.20;3.47;;;;;;;7.23;69.75;97779.19;4993842;28;20227;-71
2022/04/19 01:00:27;;;;;;;6.03;3.60;;;;;;;7.20;69.67;97788.34;4993953;28;20223;-71
2022/04/19 01:02:53;;;;;;;4.10;3.40;;;;;;;7.23;70.34;97779.19;4994173;28;20211;-71
2022/04/19 01:05:19;;;;;;;4.57;3.40;;;;;;;7.16;69.80;97771.28;4994168;28;20226;-72
2022/04/19 01:07:47;;;;;;;4.97;3.60;;;;;;;7.17;71.70;97772.91;4993979;28;20223;-71
2022/04/19 01:10:13;;;;;;;4.17;3.13;;;;;;;7.10;70.17;97761.50;4992974;28;20211;-71
2022/04/19 01:15:23;;;;;;;5.10;3.23;;;;;;;7.12;69.81;97766.59;4993924;28;20175;-71
2022/04/19 01:17:50;;;;;;;4.70;3.10;;;;;;;7.07;69.74;97769.88;4994203;28;20223;-71
2022/04/19 01:20:18;;;;;;;5.43;3.20;;;;;;;7.01;69.34;97761.94;4993989;28;20207;-71
2022/04/19 01:22:49;;;;;;;4.57;3.40;;;;;;;7.05;69.72;97763.94;4994052;28;20203;-71
2022/04/19 01:25:18;;;;;;;4.90;3.03;;;;;;;7.00;69.02;97761.13;4994909;28;20534;-71
2022/04/19 01:27:45;;;;;;;3.73;2.80;;;;;;;6.99;69.92;97756.03;4993739;28;20297;-71
2022/04/19 01:30:11;;;;;;;5.20;3.10;;;;;;;6.95;69.60;97757.44;4994256;28;20204;-71
2022/04/19 01:32:38;;;;;;;4.77;3.40;;;;;;;6.89;71.45;97756.44;4995410;28;20222;-71
2022/04/19 01:35:08;;;;;;;3.90;2.97;;;;;;;6.73;70.10;97754.19;4997847;28;20207;-71
2022/04/19 01:37:36;;;;;;;4.13;3.03;;;;;;;6.76;70.62;97756.44;4997727;28;20235;-71
2022/04/19 01:40:20;;;;;;;6.43;3.20;;;;;;;6.70;70.68;97749.28;4997770;28;20209;-71
2022/04/19 01:42:52;;;;;;;4.30;3.40;;;;;;;6.71;70.63;97739.56;4997741;28;20197;-71
2022/04/19 01:45:23;;;;;;;4.73;3.27;;;;;;;6.75;70.58;97746.06;4997615;28;20214;-71
2022/04/19 01:47:50;;;;;;;3.30;2.90;;;;;;;6.67;70.84;97743.59;4997562;28;20232;-71
2022/04/19 01:50:18;;;;;;;4.13;3.03;;;;;;;6.61;71.32;97745.22;4997304;28;20681;-71
2022/04/19 01:52:46;;;;;;;3.70;3.07;;;;;;;6.60;70.84;97738.31;4997547;28;20203;-72
2022/04/19 01:55:18;;;;;;;4.13;3.10;;;;;;;6.55;70.49;97737.28;4997968;28;20207;-71
2022/04/19 01:57:50;;;;;;;5.83;3.00;;;;;;;6.52;71.11;97735.88;4997672;28;20231;-71
2022/04/19 02:00:17;;;;;;;5.90;3.37;;;;;;;6.39;71.07;97735.88;4997092;28;20187;-71
2022/04/19 02:02:45;;;;;;;3.90;3.10;;;;;;;6.50;71.99;97732.63;4997014;28;20211;-71
2022/04/19 02:05:12;;;;;;;5.17;3.40;;;;;;;6.47;71.46;97737.50;4997327;28;20258;-71
2022/04/19 02:07:40;;;;;;;5.23;3.33;;;;;;;6.46;71.66;97741.97;4997247;28;20235;-71
2022/04/19 02:10:09;;;;;;;6.17;3.60;;;;;;;6.38;71.45;97734.22;4997149;28;20233;-71
2022/04/19 02:12:36;;;;;;;4.83;3.17;;;;;;;6.39;71.49;97743.78;4997180;28;20214;-71
2022/04/19 02:15:04;;;;;;;4.70;3.20;;;;;;;6.39;72.00;97735.88;4997099;28;20233;-71
2022/04/19 02:17:30;;;;;;;4.50;3.43;;;;;;;6.35;72.07;97739.91;4997051;28;20234;-71
2022/04/19 02:20:04;;;;;;;4.00;3.10;;;;;;;6.36;72.28;97732.78;4996700;28;20662;-71
2022/04/19 02:22:32;;;;;;;6.43;3.47;;;;;;;6.34;72.01;97729.56;4997141;28;20265;-71
2022/04/19 02:24:59;;;;;;;4.93;3.27;;;;;;;6.35;72.40;97737.28;4996949;28;20207;-71
2022/04/19 02:27:27;;;;;;;3.93;3.10;;;;;;;6.30;73.42;97737.06;4996712;28;20238;-71
2022/04/19 02:29:54;;;;;;;3.33;3.00;;;;;;;6.32;73.19;97739.47;4996753;28;20367;-71
2022/04/19 02:32:23;;;;;;;4.80;3.03;;;;;;;6.29;72.83;97731.97;4996829;28;20302;-71
2022/04/19 02:34:53;;;;;;;4.50;3.40;;;;;;;6.28;72.58;97738.25;4996748;28;20211;-71
2022/04/19 02:37:20;;;;;;;3.70;2.97;;;;;;;6.20;73.30;97731.34;4996306;28;20230;-71
2022/04/19 02:39:48;;;;;;;5.60;3.33;;;;;;;6.23;72.91;97735.41;4996635;28;20207;-71
2022/04/19 02:42:14;;;;;;;3.87;3.23;;;;;;;6.23;73.06;97730.13;4996330;28;20660;-71
2022/04/19 02:44:40;;;;;;;3.93;3.10;;;;;;;6.24;72.99;97724.66;4995930;28;20214;-71
2022/04/19 02:47:07;;;;;;;4.27;3.20;;;;;;;6.24;73.00;97737.03;4996422;28;20224;-71
2022/04/19 02:49:34;;;;;;;5.50;3.20;;;;;;;6.25;72.54;97725.47;4996361;28;20223;-71
2022/04/19 02:52:01;;;;;;;4.67;3.37;;;;;;;6.22;72.79;97723.22;4996140;28;20666;-71
2022/04/19 02:54:27;;;;;;;4.30;3.27;;;;;;;6.19;72.57;97724.44;4996351;28;20211;-71
2022/04/19 02:56:54;;;;;;;4.57;3.00;;;;;;;6.14;73.52;97726.03;4996257;28;20234;-71
2022/04/19 02:59:20;;;;;;;4.03;3.30;;;;;;;6.14;73.05;97724.22;4996273;28;20210;-71
2022/04/19 03:01:46;;;;;;;5.23;3.70;;;;;;;6.08;73.44;97718.91;4996092;28;20299;-71
2022/04/19 03:04:13;;;;;;;4.43;3.20;;;;;;;6.04;74.15;97720.31;4996166;28;20214;-71
2022/04/19 03:06:39;;;;;;;6.27;3.47;;;;;;;6.08;73.99;97714.47;4995711;28;20212;-71
2022/04/19 03:09:05;;;;;;;4.23;2.80;;;;;;;6.07;72.83;97715.47;4995434;28;20227;-71
2022/04/19 03:11:33;;;;;;;5.37;3.90;;;;;;;5.99;73.24;97717.47;4996215;28;20214;-71
2022/04/19 03:13:59;;;;;;;8.80;3.87;;;;;;;5.94;75.45;97715.44;4995982;28;20216;-72
2022/04/19 03:16:26;;;;;;;5.50;3.20;;;;;;;6.03;73.62;97708.16;4996178;28;20218;-71
2022/04/19 03:18:52;;;;;;;5.23;3.80;;;;;;;5.97;73.78;97704.47;4996328;28;20199;-71
2022/04/19 03:21:19;;;;;;;4.70;3.40;;;;;;;5.90;73.30;97718.66;4995657;28;20214;-71
2022/04/19 03:29:13;;;;;;;5.37;3.30;;;;;;;5.81;74.60;97699.56;4995554;28;20206;-71
2022/04/19 03:31:40;;;;;;;4.40;3.37;;;;;;;5.82;74.22;97703.81;4995457;28;20293;-71
2022/04/19 03:34:07;;;;;;;4.93;3.50;;;;;;;5.75;75.49;97704.78;4995047;28;20602;-71
2022/04/19 03:36:34;;;;;;;4.80;3.37;;;;;;;5.81;74.39;97698.75;4995105;28;20222;-71
2022/04/19 03:39:00;;;;;;;4.80;3.30;;;;;;;5.71;74.88;97704.38;4995081;28;20207;-71
2022/04/19 03:41:26;;;;;;;5.17;4.03;;;;;;;5.62;75.34;97699.44;4995319;28;20203;-71
2022/04/19 03:43:53;;;;;;;4.23;3.33;;;;;;;5.61;75.54;97698.63;4995221;28;20207;-71
2022/04/19 03:46:19;;;;;;;5.33;3.47;;;;;;;5.58;75.83;97699.03;4994227;28;20203;-71
2022/04/19 03:48:46;;;;;;;4.57;3.40;;;;;;;5.58;76.22;97706.94;4994977;28;20261;-71
2022/04/19 03:51:12;;;;;;;6.00;3.87;;;;;;;5.58;75.73;97704.31;4995157;28;20207;-71
2022/04/19 03:53:38;;;;;;;4.43;3.10;;;;;;;5.59;76.01;97715.66;4995075;28;20214;-71
2022/04/19 03:56:05;;;;;;;5.27;3.50;;;;;;;5.63;76.22;97712.44;4994181;28;20211;-71
2022/04/19 03:58:32;;;;;;;5.43;3.10;;;;;;;5.67;75.09;97713.69;4995133;28;20231;-71
2022/04/19 04:00:59;;;;;;;4.27;3.40;;;;;;;5.64;75.65;97719.34;4995638;28;20234;-71
2022/04/19 04:03:26;;;;;;;5.80;3.60;;;;;;;5.57;75.72;97720.31;4994702;28;20216;-71
2022/04/19 04:05:52;;;;;;;5.33;3.47;;;;;;;5.53;76.13;97708.53;4994485;28;20210;-71
2022/04/19 04:08:19;;;;;;;4.00;3.10;;;;;;;5.50;75.52;97708.91;4994579;28;20227;-71
2022/04/19 04:10:45;;;;;;;6.03;3.40;;;;;;;5.50;74.84;97714.19;4994837;28;20403;-71
2022/04/19 04:13:11;;;;;;;4.17;2.93;;;;;;;5.43;76.06;97713.34;4994550;28;20689;-71
2022/04/19 04:15:38;;;;;;;4.20;3.20;;;;;;;5.37;75.83;97714.13;4994455;28;20674;-71
2022/04/19 04:18:04;;;;;;;5.60;3.93;;;;;;;5.34;75.89;97712.69;4994554;28;20258;-71
2022/04/19 04:20:31;;;;;;;5.93;3.67;;;;;;;5.29;76.25;97712.44;4994736;28;20258;-72
2022/04/19 04:22:57;;;;;;;4.33;3.30;;;;;;;5.34;76.13;97722.44;4994491;28;20207;-71
2022/04/19 04:25:23;;;;;;;6.73;3.23;;;;;;;5.42;75.92;97709.09;4994428;28;20214;-71
2022/04/19 04:27:50;;;;;;;7.07;3.63;;;;;;;5.42;75.71;97714.38;4993942;28;20238;-71
2022/04/19 04:30:16;;;;;;;3.60;3.13;;;;;;;5.38;76.36;97713.13;4994247;28;20237;-71
2022/04/19 04:32:44;;;;;;;4.57;3.17;;;;;;;5.44;75.96;97712.34;4994115;28;20215;-71
2022/04/19 04:35:10;;;;;;;4.63;3.50;;;;;;;5.40;76.22;97716.38;4994473;28;20217;-71
2022/04/19 04:37:37;;;;;;;5.40;3.20;;;;;;;5.42;76.58;97724.91;4994418;28;20227;-71
2022/04/19 04:40:04;;;;;;;3.97;3.37;;;;;;;5.40;76.44;97713.72;4993584;28;20207;-71
2022/04/19 04:42:30;;;;;;;5.17;3.43;;;;;;;5.47;76.37;97722.50;4993607;28;20670;-71
2022/04/19 04:44:57;;;;;;;6.90;3.40;;;;;;;5.37;76.99;97727.28;4994214;28;20207;-71
2022/04/19 04:50:08;;;;;;;6.03;3.17;;;;;;;5.43;76.53;97718.63;4993976;28;20289;-71
2022/04/19 04:52:35;;;;;;;4.80;3.67;;;;;;;5.43;76.87;97721.25;4994136;28;20207;-71
2022/04/19 04:55:01;;;;;;;4.47;3.43;;;;;;;5.48;76.79;97716.22;4994885;28;20211;-71
2022/04/19 04:57:28;;;;;;;4.30;3.10;;;;;;;5.57;77.25;97720.31;4994163;28;20594;-71
2022/04/19 04:59:54;;;;;;;4.37;3.07;;;;;;;5.59;76.43;97713.00;4993693;28;20213;-71
2022/04/19 05:02:23;;;;;;;3.33;3.03;;;;;;;5.66;76.18;97716.50;4993784;28;20310;-71
2022/04/19 05:04:49;;;;;;;5.47;3.53;;;;;;;5.71;74.94;97719.38;4993814;28;20211;-71
2022/04/19 05:07:17;;;;;;;4.93;3.20;;;;;;;5.72;74.73;97721.00;4995464;28;20239;-71
2022/04/19 05:09:43;;;;;;;5.17;3.43;;;;;;;5.81;74.51;97718.03;4999961;28;20277;-71
2022/04/19 05:12:10;;;;;;;3.70;3.03;;;;;;;5.81;73.81;97718.03;4999836;28;20217;-71
2022/04/19 05:14:37;;;;;;;6.17;3.37;;;;;;;5.93;74.04;97713.78;5000375;28;20214;-71
2022/04/19 05:17:03;;;;;;;5.20;3.50;;;;;;;6.03;73.19;97716.06;5000242;28;20254;-71
2022/04/19 05:19:29;;;;;;;4.23;2.80;;;;;;;5.95;72.28;97724.16;4999955;28;20207;-71
2022/04/19 05:21:56;;;;;;;3.97;2.93;;;;;;;6.08;72.46;97721.56;4999533;28;20211;-71
2022/04/19 05:24:23;;;;;;;3.30;2.90;;;;;;;6.10;72.07;97722.97;4999655;28;20207;-71
2022/04/19 05:26:49;;;;;;;4.60;2.70;;;;;;;6.08;72.23;97726.84;4999565;28;20231;-72
2022/04/19 05:29:15;;;;;;;5.67;3.13;;;;;;;6.08;72.04;97721.56;4999846;28;20670;-71
2022/04/19 05:31:42;;;;;;;4.93;2.80;;;;;;;6.03;71.22;97730.09;5000078;28;20302;-71
2022/04/19 05:34:08;;;;;;;4.73;3.10;;;;;;;6.08;72.17;97729.47;5000295;28;20257;-71
2022/04/19 05:36:35;;;;;;;6.83;3.20;;;;;;;6.12;72.03;97738.63;4999935;28;20211;-71
2022/04/19 05:39:01;;;;;;;3.50;2.97;;;;;;;6.24;71.90;97737.84;4999772;28;20203;-71
2022/04/19 05:41:28;;;;;;;4.63;3.50;;;;;;;6.39;70.76;97735.03;4999605;28;20667;-71
2022/04/19 05:43:54;;;;;;;3.93;2.90;;;;;;;6.41;70.38;97735.63;4999716;28;20674;-71
2022/04/19 05:46:20;;;;;;;4.70;3.10;;;;;;;6.59;69.89;97726.13;4999770;28;20203;-72
2022/04/19 05:48:47;;;;;;;5.10;3.00;;;;;;;6.70;69.00;97732.66;5008833;28;20227;-71
2022/04/19 05:51:13;;;;;;;5.43;3.10;;;;;;;6.69;68.20;97731.03;5008260;28;20573;-71
2022/04/19 05:53:43;;;;;;;3.87;3.10;;;;;;;6.78;68.69;97740.38;5010142;28;20195;-71
2022/04/19 05:56:09;;;;;;;4.20;3.07;;;;;;;6.91;69.01;97741.19;5016464;28;20206;-71
2022/04/19 05:58:36;;;;;;;4.87;3.27;;;;;;;6.89;67.18;97742.41;5019446;28;20250;-71
2022/04/19 06:01:03;;;;;;;5.23;3.40;;;;;;;6.99;67.73;97732.25;5018308;28;20553;-71
2022/04/19 06:06:14;;;;;;;4.07;3.10;;;;;;;7.12;67.58;97732.22;4998203;28;20355;-71
2022/04/19 06:08:41;;;;;;;4.80;3.40;;;;;;;7.10;67.61;97731.63;4998379;28;20234;-71
2022/04/19 06:11:11;;;;;;;3.93;3.10;;;;;;;7.19;67.34;97733.06;4999139;28;20226;-71
2022/04/19 06:13:37;;;;;;;4.40;3.07;;;;;;;7.33;67.60;97732.81;4999485;28;20210;-71
2022/04/19 06:16:04;;;;;;;4.17;2.90;;;;;;;7.46;66.52;97737.28;5000095;28;20218;-71
2022/04/19 06:18:30;;;;;;;3.70;3.17;;;;;;;7.54;66.32;97737.03;4998795;28;20227;-71
2022/04/19 06:20:57;;;;;;;4.77;3.60;;;;;;;7.61;65.69;97729.91;4995857;28;20214;-72
2022/04/19 06:23:23;;;;;;;7.47;3.10;;;;;;;7.68;65.41;97728.03;4996713;28;20218;-71
2022/04/19 06:25:50;;;;;;;5.40;3.57;;;;;;;7.66;65.41;97733.56;4996301;28;20670;-71
2022/04/19 06:28:17;;;;;;;5.10;3.40;;;;;;;7.81;64.83;97734.13;4996034;28;20598;-71
2022/04/19 06:30:43;;;;;;;5.53;3.57;;;;;;;8.02;64.01;97725.06;4996402;28;20231;-71
2022/04/19 06:33:10;;;;;;;3.93;3.10;;;;;;;8.03;64.25;97724.03;4996215;28;20211;-71
2022/04/19 06:35:36;;;;;;;7.77;3.93;;;;;;;8.17;64.02;97729.06;4996680;28;20211;-70
2022/04/19 06:38:03;;;;;;;6.60;3.57;;;;;;;8.40;62.89;97728.56;4995845;28;20227;-70
2022/04/19 06:40:30;;;;;;;5.80;3.47;;;;;;;8.50;62.95;97721.78;4996236;28;20203;-71
2022/04/19 06:42:57;;;;;;;4.03;3.40;;;;;;;8.58;62.72;97732.13;4995992;28;20303;-71
2022/04/19 06:45:24;;;;;;;6.27;3.00;;;;;;;8.55;61.55;97729.09;4996208;28;20207;-70
2022/04/19 06:48:01;;;;;;;5.97;3.93;;;;;;;8.72;63.43;97727.53;4996051;28;20251;-70
2022/04/19 06:50:28;;;;;;;5.27;3.60;;;;;;;9.22;61.19;97715.88;4996212;28;20226;-70
2022/04/19 06:52:54;;;;;;;6.50;3.80;;;;;;;9.17;61.29;97721.88;4995998;28;20211;-70
2022/04/19 06:55:21;;;;;;;6.63;3.63;;;;;;;9.29;60.01;97724.59;4996192;28;20225;-70
2022/04/19 06:57:48;;;;;;;7.57;3.73;;;;;;;9.36;59.21;97730.66;4995791;28;20278;-69
2022/04/19 07:00:16;;;;;;;5.90;3.97;;;;;;;9.58;59.91;97734.50;4996015;28;20203;-69
2022/04/19 07:02:44;;;;;;;5.53;3.93;;;;;;;9.34;60.56;97727.41;4995843;28;20209;-70
2022/04/19 07:05:11;;;;;;;7.80;3.70;;;;;;;9.71;58.41;97729.88;4995697;28;20217;-70
2022/04/19 07:07:42;;;;;;;4.43;3.67;;;;;;;9.79;59.20;97726.13;4995807;28;20238;-70
2022/04/19 07:10:11;;;;;;;5.00;3.73;;;;;;;9.70;59.43;97727.44;4995764;28;20223;-69
2022/04/19 07:12:38;;;;;;;7.83;4.17;;;;;;;10.00;58.97;97723.03;4995654;28;20211;-70
2022/04/19 07:15:05;;;;;;;10.97;4.40;;;;;;;10.02;59.18;97727.06;4995360;28;20215;-69
2022/04/19 07:17:31;;;;;;;6.63;3.80;;;;;;;9.84;58.80;97719.13;4995274;28;20230;-69
2022/04/19 07:28:15;;;;;;;7.43;3.90;;;;;;;10.30;57.26;97721.22;4994853;28;20269;-70
2022/04/19 07:30:41;;;;;;;9.13;4.53;;;;;;;10.36;57.37;97734.41;4994530;28;20234;-70
2022/04/19 07:33:08;;;;;;;7.77;4.70;;;;;;;10.50;57.03;97727.09;4995015;28;20207;-70
2022/04/19 07:35:34;;;;;;;6.80;4.53;;;;;;;10.24;56.84;97722.94;4994509;28;20691;-70
2022/04/19 07:38:02;;;;;;;8.70;4.67;;;;;;;10.44;56.27;97731.44;4995079;28;20223;-69
2022/04/19 07:40:29;;;;;;;6.90;4.27;;;;;;;10.57;56.55;97728.59;4995255;28;20235;-70
2022/04/19 07:42:55;;;;;;;9.17;4.17;;;;;;;10.60;56.46;97725.47;4995173;28;20222;-70
2022/04/19 07:45:22;;;;;;;8.30;4.17;;;;;;;10.63;55.42;97727.69;4994809;28;20701;-70
2022/04/19 07:47:48;;;;;;;11.17;4.30;;;;;;;10.99;56.30;97726.72;4995218;28;20229;-70
2022/04/19 07:50:14;;;;;;;6.90;4.17;;;;;;;11.27;54.15;97716.25;4995000;28;20231;-70
2022/04/19 07:52:41;;;;;;;6.07;3.97;;;;;;;11.23;53.90;97715.88;4995067;28;20204;-70
2022/04/19 07:55:07;;;;;;;6.67;4.77;;;;;;;11.06;57.60;97719.44;4995048;28;20222;-70
2022/04/19 07:57:34;;;;;;;8.37;4.57;;;;;;;11.33;55.59;97712.63;4995360;28;20231;-69
2022/04/19 08:00:00;;;;;;;8.50;4.43;;;;;;;11.73;53.64;97708.25;4994391;28;20204;-70
2022/04/19 08:02:27;;;;;;;8.40;4.20;;;;;;;11.77;52.52;97709.41;4994589;28;20243;-69
2022/04/19 08:04:54;;;;;;;7.63;4.50;;;;;;;11.72;53.99;97709.28;4994911;28;20209;-70
2022/04/19 08:07:21;;;;;;;9.77;5.43;;;;;;;12.03;52.36;97711.50;4994661;28;20234;-70
2022/04/19 08:09:47;;;;;;;7.57;4.57;;;;;;;12.31;50.92;97702.75;4994724;28;20215;-69
2022/04/19 08:12:14;;;;;;;8.87;4.70;;;;;;;12.05;51.35;97706.78;4994503;28;20208;-70
2022/04/19 08:14:41;;;;;;;5.77;4.27;;;;;;;12.14;49.39;97713.34;4994082;28;20218;-70
2022/04/19 08:17:08;;;;;;;5.97;4.23;;;;;;;12.26;50.27;97710.63;4994318;28;20342;-69
2022/04/19 08:19:34;;;;;;;9.07;4.10;;;;;;;12.20;49.74;97706.28;4994493;28;20211;-70
2022/04/19 08:22:01;;;;;;;5.73;4.43;;;;;;;12.42;51.61;97709.88;4994549;28;20203;-70
2022/04/19 08:24:27;;;;;;;8.33;4.30;;;;;;;12.62;51.31;97705.72;4994719;28;20215;-70
2022/04/19 08:26:54;;;;;;;10.20;4.50;;;;;;;12.75;51.13;97708.06;4993792;28;20231;-70
2022/04/19 08:29:20;;;;;;;5.00;3.97;;;;;;;12.86;50.37;97703.72;4994291;28;20203;-69
2022/04/19 08:31:46;;;;;;;9.83;4.57;;;;;;;12.89;50.76;97706.72;4994391;28;20234;-70
2022/04/19 08:34:13;;;;;;;7.00;4.23;;;;;;;12.99;50.87;97698.94;4994294;28;20210;-70
2022/04/19 08:36:39;;;;;;;6.70;4.43;;;;;;;13.05;49.51;97700.63;4993894;28;20219;-70
2022/04/19 08:39:07;;;;;;;6.63;4.80;;;;;;;13.07;49.66;97703.84;4994530;28;20562;-70
2022/04/19 08:41:33;;;;;;;6.57;4.50;;;;;;;12.97;51.03;97698.34;4994084;28;20206;-70
2022/04/19 08:43:59;;;;;;;7.77;4.50;;;;;;;13.29;49.30;97691.38;4992460;28;20213;-69
2022/04/19 08:46:26;;;;;;;5.50;4.63;;;;;;;13.31;49.89;97696.47;4993960;28;20216;-70
2022/04/19 08:48:57;;;;;;;4.70;4.20;;;;;;;13.29;48.21;97691.38;4993821;28;20218;-70
2022/04/19 08:51:27;;;;;;;6.20;4.03;;;;;;;13.46;47.31;97691.34;4992543;28;20237;-70
2022/04/19 08:59:33;;;;;;;5.80;3.87;;;;;;;13.87;44.79;97686.31;4993492;28;20263;-70
2022/04/19 09:02:00;;;;;;;8.67;4.00;;;;;;;13.82;45.02;97683.56;4993454;28;20492;-70
2022/04/19 09:04:27;;;;;;;8.13;3.80;;;;;;;14.05;45.00;97686.00;4993420;28;20673;-70
2022/04/19 09:06:56;;;;;;;4.57;3.77;;;;;;;13.99;43.77;97681.66;4993464;28;20236;-70
2022/04/19 09:09:26;;;;;;;5.93;4.17;;;;;;;14.12;43.74;97683.13;4993808;28;20218;-70
2022/04/19 09:11:55;;;;;;;5.33;3.57;;;;;;;14.16;41.78;97682.38;4993764;28;20219;-70
2022/04/19 09:14:23;;;;;;;4.57;3.00;;;;;;;14.46;41.28;97679.22;4993571;28;20211;-70
2022/04/19 09:17:04;;;;;;;5.63;3.30;;;;;;;14.22;41.46;97684.09;4993523;28;20309;-70
2022/04/19 09:19:30;;;;;;;5.40;3.43;;;;;;;14.46;41.74;97681.91;4993818;28;20278;-70
2022/04/19 09:21:57;;;;;;;5.70;3.30;;;;;;;14.59;41.69;97682.34;4994222;28;20207;-70
2022/04/19 09:24:25;;;;;;;3.83;3.43;;;;;;;14.84;40.12;97679.88;4993434;28;20211;-70
2022/04/19 09:26:52;;;;;;;5.63;3.70;;;;;;;14.78;41.38;97683.56;4993679;28;20258;-70
2022/04/19 09:29:26;;;;;;;8.13;4.20;;;;;;;14.51;40.99;97676.63;4994063;28;20195;-70
2022/04/19 09:31:57;;;;;;;6.80;4.30;;;;;;;14.98;41.91;97669.56;4993653;28;20214;-70
2022/04/19 09:34:29;;;;;;;4.27;3.87;;;;;;;15.07;44.32;97668.81;4993526;28;20195;-71
2022/04/19 09:37:12;;;;;;;4.70;3.90;;;;;;;15.29;41.90;97658.78;4993631;28;20717;-71
2022/04/19 09:39:40;;;;;;;3.63;3.33;;;;;;;15.54;40.59;97656.31;4993801;28;20698;-70
2022/04/19 09:42:06;;;;;;;6.23;3.43;;;;;;;15.43;40.71;97657.31;4993783;28;20199;-70
2022/04/19 09:44:51;;;;;;;4.27;3.70;;;;;;;15.57;39.76;97658.47;4993574;28;20203;-70
2022/04/19 09:47:18;;;;;;;5.63;4.00;;;;;;;15.52;38.18;97653.06;4993176;28;20243;-71
2022/04/19 09:49:54;;;;;;;5.33;3.37;;;;;;;15.24;39.00;97657.97;4993865;28;20207;-70
2022/04/19 09:52:23;;;;;;;3.93;3.00;;;;;;;15.23;38.78;97659.84;4993405;28;20205;-70
2022/04/19 09:55:06;;;;;;;3.37;2.70;;;;;;;15.46;33.68;97655.97;4994481;28;20218;-70
2022/04/19 09:57:35;;;;;;;3.73;3.03;;;;;;;14.89;34.91;97655.03;4997052;28;20233;-70
2022/04/19 10:00:01;;;;;;;2.87;2.63;;;;;;;15.07;35.17;97651.97;4997241;28;20318;-70
2022/04/19 10:08:21;;;;;;;2.80;2.53;;;;;;;15.75;33.50;97643.81;4995895;28;20354;-69
2022/04/19 10:10:50;;;;;;;5.50;2.50;;;;;;;15.60;32.49;97635.72;4996977;28;20243;-70
2022/04/19 10:13:23;;;;;;;4.10;2.63;;;;;;;16.10;32.23;97642.06;4996449;28;20667;-70
2022/04/19 10:15:49;;;;;;;4.07;2.93;;;;;;;16.18;31.40;97638.88;4996571;28;20318;-71
2022/04/19 10:18:16;;;;;;;2.70;2.40;;;;;;;16.27;32.45;97644.53;4996235;28;20715;-71
2022/04/19 10:20:53;;;;;;;3.17;2.87;;;;;;;16.00;32.25;97642.03;4996710;28;20207;-70
2022/04/19 10:23:20;;;;;;;4.20;2.70;;;;;;;16.12;31.29;97631.09;4996936;28;20319;-71
2022/04/19 10:25:49;;;;;;;3.30;2.97;;;;;;;15.73;32.34;97640.59;4996291;28;20207;-71
2022/04/19 10:28:26;;;;;;;4.03;3.40;;;;;;;15.91;32.28;97643.63;4995849;28;20733;-71
2022/04/19 10:30:53;;;;;;;4.40;2.83;;;;;;;15.95;32.26;97642.03;4996591;28;20215;-70
2022/04/19 10:33:48;;;;;;;3.33;2.80;;;;;;;16.27;32.05;97636.47;4997191;28;20207;-71
2022/04/19 10:36:22;;;;;;;4.03;3.13;;;;;;;16.38;31.63;97635.44;4996153;28;20670;-71
2022/04/19 10:39:24;;;;;;;3.37;2.60;;;;;;;16.52;32.12;97644.63;4996128;28;20238;-71
2022/04/19 10:42:02;;;;;;;4.20;3.17;;;;;;;15.97;32.45;97637.19;4974698;28;20211;-71
2022/04/19 10:44:48;;;;;;;7.53;5.30;;;;;;;15.91;32.65;97632.91;4994046;28;20777;-70
2022/04/19 10:47:19;;;;;;;6.23;5.60;;;;;;;15.70;32.24;97625.84;4996392;28;20234;-71
2022/04/19 10:50:05;;;;;;;5.30;4.80;;;;;;;15.79;33.47;97621.56;4995924;28;20207;-70
2022/04/19 10:52:40;;;;;;;4.77;3.30;;;;;;;16.29;34.58;97635.13;4996742;28;20302;-70
2022/04/19 10:55:18;;;;;;;3.80;3.40;;;;;;;16.48;32.59;97620.22;4996977;28;20214;-70
2022/04/19 10:58:20;;;;;;;5.63;3.80;;;;;;;16.38;32.44;97630.88;4995943;28;20234;-70
2022/04/19 11:00:52;;;;;;;4.07;3.30;;;;;;;16.34;33.48;97619.09;4995813;28;20191;-70
2022/04/19 11:03:33;;;;;;;6.40;3.93;;;;;;;16.32;33.03;97623.06;4995430;28;20211;-70
2022/04/19 11:06:01;;;;;;;4.07;3.67;;;;;;;16.36;33.63;97614.25;4995714;28;20213;-69
2022/04/19 11:08:29;;;;;;;3.90;3.33;;;;;;;15.90;32.52;97620.56;4995481;28;20231;-69
2022/04/19 11:11:02;;;;;;;4.37;3.20;;;;;;;16.09;33.80;97607.47;4995491;28;20593;-69
2022/04/19 11:13:39;;;;;;;4.53;3.80;;;;;;;15.86;32.09;97603.41;4996143;28;20207;-71
2022/04/19 11:16:06;;;;;;;5.27;4.47;;;;;;;16.21;32.09;97605.38;4995698;28;20257;-71
2022/04/19 11:18:38;;;;;;;4.00;3.60;;;;;;;16.21;31.42;97603.50;4994987;28;20231;-71
2022/04/19 11:21:08;;;;;;;4.23;3.27;;;;;;;16.42;33.28;97602.47;4995080;28;20238;-70
2022/04/19 11:23:48;;;;;;;5.37;3.57;;;;;;;15.72;32.32;97607.63;4995399;28;20211;-70
2022/04/19 11:26:33;;;;;;;3.60;3.30;;;;;;;16.33;32.01;97601.34;4994943;28;20217;-70
2022/04/19 11:29:11;;;;;;;5.47;4.07;;;;;;;16.51;32.42;97592.03;4995387;28;20205;-70
2022/04/19 11:31:58;;;;;;;4.77;3.50;;;;;;;16.70;32.68;97593.09;4995745;28;20226;-70
2022/04/19 11:34:25;;;;;;;5.23;4.40;;;;;;;15.64;32.85;97588.56;4994812;28;20710;-70
2022/04/19 11:36:57;;;;;;;5.30;3.70;;;;;;;15.84;34.18;97584.06;4995168;28;20258;-70
2022/04/19 11:47:47;;;;;;;4.17;3.77;;;;;;;16.13;32.87;97568.34;4994775;28;20218;-71
2022/04/19 11:50:28;;;;;;;4.30;3.67;;;;;;;16.43;33.74;97577.28;4994752;28;20221;-70
2022/04/19 11:52:54;;;;;;;6.10;3.63;;;;;;;16.51;31.63;97571.34;4995187;28;20210;-71
2022/04/19 11:55:25;;;;;;;4.27;3.30;;;;;;;16.36;30.09;97575.88;4995020;28;20215;-70
2022/04/19 11:58:05;;;;;;;5.90;3.80;;;;;;;15.87;31.36;97575.50;4994939;28;20235;-71
2022/04/19 12:00:32;;;;;;;4.97;3.10;;;;;;;16.07;30.33;97572.91;4994807;28;20666;-70
2022/04/19 12:03:01;;;;;;;3.53;3.23;;;;;;;16.18;31.66;97573.69;4994865;28;20217;-70
2022/04/19 12:05:28;;;;;;;6.40;3.93;;;;;;;16.47;31.50;97566.81;4994711;28;20213;-71
2022/04/19 12:07:55;;;;;;;4.80;3.70;;;;;;;16.58;32.97;97574.59;4994549;28;20223;-72
2022/04/19 12:10:23;;;;;;;6.20;4.30;;;;;;;16.28;31.43;97569.16;4994849;28;20215;-71
2022/04/19 12:12:53;;;;;;;4.40;3.97;;;;;;;16.35;33.75;97575.09;4994267;28;20315;-71
2022/04/19 12:15:38;;;;;;;7.30;4.17;;;;;;;16.54;31.98;97573.50;4994488;28;20273;-71
2022/04/19 12:18:05;;;;;;;4.80;4.27;;;;;;;16.39;32.29;97560.06;4993096;28;20706;-72
2022/04/19 12:20:43;;;;;;;5.33;4.43;;;;;;;15.92;32.05;97562.13;4994310;28;20207;-72
2022/04/19 12:23:22;;;;;;;6.43;4.37;;;;;;;16.46;32.88;97554.47;4993964;28;20277;-72
2022/04/19 12:26:05;;;;;;;5.90;4.13;;;;;;;16.53;31.33;97560.34;4994333;28;20215;-71
2022/04/19 12:28:48;;;;;;;5.93;4.17;;;;;;;16.65;31.06;97553.63;4993950;28;20234;-72